Главная страница
METAR-TAF:

METAR-TAF

Аэропорты :

Ургенч, Узбекистан

широта: 41-35N, долгота: 060-38-42E, высота над уровнем моря: 98 м

Текущие метеонаблюдения

Эта сводка был подготовлена 43 минут назад, в 02:00 UTC
Штиль
Температура 21°C
Влажность 60%
Давление 1012 hPa
Видимость: 7000 м

METAR: UTNU 210200Z 00000KT 7000 NSC 21/13 Q1012 R31/CLRD70 NOSIG

Время: 07:43 (02:43 UTC)

Прогноз

Эта сводка был подготовлена 3 часа и 43 минут назад, в 23:00 UTC
Прогноз действительный с 21-го 00 UTC до 21-го 24 UTC
Ветер 10 Узел от южный с порывами до 20 Узел
Видимость: 7000 м
Отдельные облака на высоте 6000 фута, Кучево-дождевые.
Рассеянная облачность на высоте 10000 фута
временами
С 21-го 00 UTC до 21-го 06 UTC
Ветер 4 Узел переменных направлений
Видимость: 3000 м
Рассеянная облачность на высоте 4000 фута, Кучево-дождевые.
Рассеянная облачность на высоте 10000 фута
небольшие ливневые дожди, мгла

TAF: UTNU 202300Z 2100/2124 18010G20KT 7000 SCT060CB BKN100 TEMPO 2100/2106 VRB04KT 3000 -SHRA HZ BKN040CB BKN100

Метеонаблюдения и прогнозы для более 4000 аэропортов (сводки METAR и TAF).

Имеющиеся станции представлены на карте желтыми и красными точками.

Чтобы увидеть название станции, наведите на нее мышь.

Затем щелкните, чтобы увидеть метеонаблюдения и метеопрогнозы.

Управление картой: чтобы увеличить масштаб, щелкните зеленые кнопки с черным крестиком; чтобы уменьшить масштаб, щелкните зеленую кнопку с тире; для просмотра соседних карт щелкайте зеленые стрелки.


METAR-TAF: